sensor_id;sensor_type;location;lat;lon;timestamp;pressure;altitude;pressure_sealevel;temperature;humidity
39075;BME280;24826;52.070;20.970;2023-04-25T00:01:06;62188.13;;;-147.04;46.74
39075;BME280;24826;52.070;20.970;2023-04-25T00:03:50;62152.34;;;-147.04;46.74
39075;BME280;24826;52.070;20.970;2023-04-25T00:06:35;62182.19;;;-147.04;46.68
39075;BME280;24826;52.070;20.970;2023-04-25T00:09:22;62190.13;;;-147.04;46.51
39075;BME280;24826;52.070;20.970;2023-04-25T00:12:06;62170.25;;;-147.04;46.62
39075;BME280;24826;52.070;20.970;2023-04-25T00:14:51;62214.00;;;-147.04;46.95
39075;BME280;24826;52.070;20.970;2023-04-25T00:17:35;62140.41;;;-147.04;46.85
39075;BME280;24826;52.070;20.970;2023-04-25T00:20:22;62184.16;;;-147.04;47.06
39075;BME280;24826;52.070;20.970;2023-04-25T00:23:07;62208.03;;;-147.04;46.85
39075;BME280;24826;52.070;20.970;2023-04-25T00:25:52;62184.16;;;-147.04;47.29
39075;BME280;24826;52.070;20.970;2023-04-25T00:28:37;62186.16;;;-147.04;47.14
39075;BME280;24826;52.070;20.970;2023-04-25T00:31:21;62184.16;;;-147.04;47.17
39075;BME280;24826;52.070;20.970;2023-04-25T00:34:06;62160.31;;;-147.04;47.13
39075;BME280;24826;52.070;20.970;2023-04-25T00:36:51;62140.41;;;-147.04;47.21
39075;BME280;24826;52.070;20.970;2023-04-25T00:39:35;62168.25;;;-147.04;47.14
39075;BME280;24826;52.070;20.970;2023-04-25T00:42:20;62190.13;;;-147.04;47.12
39075;BME280;24826;52.070;20.970;2023-04-25T00:45:06;62176.22;;;-147.04;47.27
39075;BME280;24826;52.070;20.970;2023-04-25T00:47:51;62164.28;;;-147.04;47.09
39075;BME280;24826;52.070;20.970;2023-04-25T00:50:36;62164.28;;;-147.04;46.94
39075;BME280;24826;52.070;20.970;2023-04-25T00:53:24;62164.28;;;-147.04;46.95
39075;BME280;24826;52.070;20.970;2023-04-25T00:56:09;62160.31;;;-147.04;46.89
39075;BME280;24826;52.070;20.970;2023-04-25T00:58:54;62184.16;;;-147.04;46.90
39075;BME280;24826;52.070;20.970;2023-04-25T01:01:41;62164.28;;;-147.04;46.86
39075;BME280;24826;52.070;20.970;2023-04-25T01:04:27;62192.13;;;-147.04;46.85
39075;BME280;24826;52.070;20.970;2023-04-25T01:07:12;62148.38;;;-147.04;46.83
39075;BME280;24826;52.070;20.970;2023-04-25T01:09:56;62152.34;;;-147.04;47.00
39075;BME280;24826;52.070;20.970;2023-04-25T01:12:41;62148.38;;;-147.04;47.02
39075;BME280;24826;52.070;20.970;2023-04-25T01:15:25;62160.31;;;-147.04;47.15
39075;BME280;24826;52.070;20.970;2023-04-25T01:18:10;62188.13;;;-147.04;47.18
39075;BME280;24826;52.070;20.970;2023-04-25T01:20:54;62182.19;;;-147.04;47.06
39075;BME280;24826;52.070;20.970;2023-04-25T01:23:40;62160.31;;;-147.04;47.06
39075;BME280;24826;52.070;20.970;2023-04-25T01:26:24;62178.19;;;-147.04;47.16
39075;BME280;24826;52.070;20.970;2023-04-25T01:29:09;62168.25;;;-147.04;47.10
39075;BME280;24826;52.070;20.970;2023-04-25T01:31:54;62140.41;;;-147.04;47.06
39075;BME280;24826;52.070;20.970;2023-04-25T01:34:38;62144.38;;;-147.04;47.15
39075;BME280;24826;52.070;20.970;2023-04-25T01:37:23;62140.41;;;-147.04;47.03
39075;BME280;24826;52.070;20.970;2023-04-25T01:40:10;62160.31;;;-147.04;47.17
39075;BME280;24826;52.070;20.970;2023-04-25T01:42:55;62160.31;;;-147.04;46.98
39075;BME280;24826;52.070;20.970;2023-04-25T01:45:39;62154.34;;;-147.04;46.84
39075;BME280;24826;52.070;20.970;2023-04-25T01:48:25;62162.28;;;-147.04;46.85
39075;BME280;24826;52.070;20.970;2023-04-25T01:51:09;62168.25;;;-147.04;46.92
39075;BME280;24826;52.070;20.970;2023-04-25T01:53:56;62190.13;;;-147.04;46.94
39075;BME280;24826;52.070;20.970;2023-04-25T01:56:41;62130.47;;;-147.04;46.90
39075;BME280;24826;52.070;20.970;2023-04-25T01:59:25;62178.19;;;-147.04;46.89
39075;BME280;24826;52.070;20.970;2023-04-25T02:02:10;62166.25;;;-147.04;46.85
39075;BME280;24826;52.070;20.970;2023-04-25T02:04:54;62168.25;;;-147.04;47.27
39075;BME280;24826;52.070;20.970;2023-04-25T02:07:39;62188.13;;;-147.04;46.92
39075;BME280;24826;52.070;20.970;2023-04-25T02:10:23;62168.25;;;-147.04;47.11
39075;BME280;24826;52.070;20.970;2023-04-25T02:13:08;62164.28;;;-147.04;47.11
39075;BME280;24826;52.070;20.970;2023-04-25T02:15:52;62160.31;;;-147.04;47.06
39075;BME280;24826;52.070;20.970;2023-04-25T02:18:37;62138.41;;;-147.04;47.08
39075;BME280;24826;52.070;20.970;2023-04-25T02:21:21;62152.34;;;-147.04;47.12
39075;BME280;24826;52.070;20.970;2023-04-25T02:24:06;62176.22;;;-147.04;47.13
39075;BME280;24826;52.070;20.970;2023-04-25T02:26:50;62168.25;;;-147.04;47.11
39075;BME280;24826;52.070;20.970;2023-04-25T02:29:35;62126.50;;;-147.04;47.07
39075;BME280;24826;52.070;20.970;2023-04-25T02:32:19;62136.44;;;-147.04;47.00
39075;BME280;24826;52.070;20.970;2023-04-25T02:35:05;62186.16;;;-147.04;47.14
39075;BME280;24826;52.070;20.970;2023-04-25T02:37:49;62156.31;;;-147.04;47.08
39075;BME280;24826;52.070;20.970;2023-04-25T02:40:34;62180.19;;;-147.04;47.01
39075;BME280;24826;52.070;20.970;2023-04-25T02:43:19;62158.31;;;-147.04;47.14
39075;BME280;24826;52.070;20.970;2023-04-25T02:46:06;62186.16;;;-147.04;46.99
39075;BME280;24826;52.070;20.970;2023-04-25T02:48:50;62176.22;;;-147.04;47.06
39075;BME280;24826;52.070;20.970;2023-04-25T02:51:35;62128.47;;;-147.04;47.02
39075;BME280;24826;52.070;20.970;2023-04-25T02:54:20;62192.13;;;-147.04;46.95
39075;BME280;24826;52.070;20.970;2023-04-25T02:57:04;62156.31;;;-147.04;47.02
39075;BME280;24826;52.070;20.970;2023-04-25T02:59:49;62142.41;;;-147.04;46.94
39075;BME280;24826;52.070;20.970;2023-04-25T03:02:33;62120.53;;;-147.04;47.02
39075;BME280;24826;52.070;20.970;2023-04-25T03:05:18;62128.47;;;-147.04;47.14
39075;BME280;24826;52.070;20.970;2023-04-25T03:08:02;62188.13;;;-147.04;47.18
39075;BME280;24826;52.070;20.970;2023-04-25T03:10:46;62136.44;;;-147.04;47.20
39075;BME280;24826;52.070;20.970;2023-04-25T03:13:32;62140.41;;;-147.04;47.21
39075;BME280;24826;52.070;20.970;2023-04-25T03:16:16;62148.38;;;-147.04;47.18
39075;BME280;24826;52.070;20.970;2023-04-25T03:19:02;62120.53;;;-147.04;47.16
39075;BME280;24826;52.070;20.970;2023-04-25T03:21:46;62128.47;;;-147.04;47.33
39075;BME280;24826;52.070;20.970;2023-04-25T03:24:31;62128.47;;;-147.04;47.32
39075;BME280;24826;52.070;20.970;2023-04-25T03:27:15;62136.44;;;-147.04;47.31
39075;BME280;24826;52.070;20.970;2023-04-25T03:29:59;62116.53;;;-147.04;47.36
39075;BME280;24826;52.070;20.970;2023-04-25T03:32:44;62138.41;;;-147.04;47.17
39075;BME280;24826;52.070;20.970;2023-04-25T03:35:28;62138.41;;;-147.04;47.22
39075;BME280;24826;52.070;20.970;2023-04-25T03:38:13;62166.25;;;-147.04;47.18
39075;BME280;24826;52.070;20.970;2023-04-25T03:40:57;62140.41;;;-147.04;47.14
39075;BME280;24826;52.070;20.970;2023-04-25T03:43:41;62146.38;;;-147.04;47.24
39075;BME280;24826;52.070;20.970;2023-04-25T03:46:26;62158.31;;;-147.04;47.24
39075;BME280;24826;52.070;20.970;2023-04-25T03:49:10;62140.41;;;-147.04;47.10
39075;BME280;24826;52.070;20.970;2023-04-25T03:51:55;62174.22;;;-147.04;47.17
39075;BME280;24826;52.070;20.970;2023-04-25T03:54:39;62144.38;;;-147.04;47.18
39075;BME280;24826;52.070;20.970;2023-04-25T03:57:24;62158.31;;;-147.04;47.26
39075;BME280;24826;52.070;20.970;2023-04-25T04:00:09;62176.22;;;-147.04;47.39
39075;BME280;24826;52.070;20.970;2023-04-25T04:02:53;62140.41;;;-147.04;47.39
39075;BME280;24826;52.070;20.970;2023-04-25T04:05:38;62136.44;;;-147.04;47.64
39075;BME280;24826;52.070;20.970;2023-04-25T04:08:25;62140.41;;;-147.04;47.46
39075;BME280;24826;52.070;20.970;2023-04-25T04:11:09;62112.56;;;-147.04;47.58
39075;BME280;24826;52.070;20.970;2023-04-25T04:13:54;62138.41;;;-147.04;47.45
39075;BME280;24826;52.070;20.970;2023-04-25T04:16:38;62144.38;;;-147.04;47.48
39075;BME280;24826;52.070;20.970;2023-04-25T04:19:23;62128.47;;;-147.04;47.72
39075;BME280;24826;52.070;20.970;2023-04-25T04:22:08;62128.47;;;-147.04;47.39
39075;BME280;24826;52.070;20.970;2023-04-25T04:24:52;62136.44;;;-147.04;47.58
39075;BME280;24826;52.070;20.970;2023-04-25T04:27:37;62138.41;;;-147.04;47.35
39075;BME280;24826;52.070;20.970;2023-04-25T04:30:23;62160.31;;;-147.04;48.28
39075;BME280;24826;52.070;20.970;2023-04-25T04:33:13;62188.13;;;-147.04;48.23
39075;BME280;24826;52.070;20.970;2023-04-25T04:35:59;62164.28;;;-147.04;48.75
39075;BME280;24826;52.070;20.970;2023-04-25T04:38:45;62168.25;;;-147.04;49.10
39075;BME280;24826;52.070;20.970;2023-04-25T04:41:29;62160.31;;;-147.04;49.33
39075;BME280;24826;52.070;20.970;2023-04-25T04:44:14;62194.09;;;-147.04;48.91
39075;BME280;24826;52.070;20.970;2023-04-25T04:46:59;62192.13;;;-147.04;49.07
39075;BME280;24826;52.070;20.970;2023-04-25T04:49:43;62174.22;;;-147.04;48.78
39075;BME280;24826;52.070;20.970;2023-04-25T04:52:28;62136.44;;;-147.04;48.35
39075;BME280;24826;52.070;20.970;2023-04-25T04:55:12;62164.28;;;-147.04;49.14
39075;BME280;24826;52.070;20.970;2023-04-25T04:57:57;62182.19;;;-147.04;49.36
39075;BME280;24826;52.070;20.970;2023-04-25T05:00:41;62144.38;;;-147.04;49.75
39075;BME280;24826;52.070;20.970;2023-04-25T05:03:25;62152.34;;;-147.04;49.90
39075;BME280;24826;52.070;20.970;2023-04-25T05:06:11;62144.38;;;-147.04;49.75
39075;BME280;24826;52.070;20.970;2023-04-25T05:08:56;62164.28;;;-147.04;49.82
39075;BME280;24826;52.070;20.970;2023-04-25T05:11:40;62182.19;;;-147.04;49.98
39075;BME280;24826;52.070;20.970;2023-04-25T05:14:25;62166.25;;;-147.04;49.64
39075;BME280;24826;52.070;20.970;2023-04-25T05:17:09;62142.41;;;-147.04;49.05
39075;BME280;24826;52.070;20.970;2023-04-25T05:19:54;62140.41;;;-147.04;49.09
39075;BME280;24826;52.070;20.970;2023-04-25T05:22:38;62152.34;;;-147.04;49.03
39075;BME280;24826;52.070;20.970;2023-04-25T05:25:23;62144.38;;;-147.04;49.04
39075;BME280;24826;52.070;20.970;2023-04-25T05:28:07;62154.34;;;-147.04;48.94
39075;BME280;24826;52.070;20.970;2023-04-25T05:30:52;62140.41;;;-147.04;48.85
39075;BME280;24826;52.070;20.970;2023-04-25T05:33:36;62120.53;;;-147.04;48.88
39075;BME280;24826;52.070;20.970;2023-04-25T05:36:21;62146.38;;;-147.04;49.06
39075;BME280;24826;52.070;20.970;2023-04-25T05:39:05;62152.34;;;-147.04;48.71
39075;BME280;24826;52.070;20.970;2023-04-25T05:41:50;62158.31;;;-147.04;49.04
39075;BME280;24826;52.070;20.970;2023-04-25T05:44:35;62164.28;;;-147.04;49.43
39075;BME280;24826;52.070;20.970;2023-04-25T05:47:19;62162.28;;;-147.04;49.24
39075;BME280;24826;52.070;20.970;2023-04-25T05:50:03;62140.41;;;-147.04;49.17
39075;BME280;24826;52.070;20.970;2023-04-25T05:52:48;62144.38;;;-147.04;49.09
39075;BME280;24826;52.070;20.970;2023-04-25T05:55:32;62146.38;;;-147.04;49.21
39075;BME280;24826;52.070;20.970;2023-04-25T05:58:17;62184.16;;;-147.04;49.09
39075;BME280;24826;52.070;20.970;2023-04-25T06:01:01;62176.22;;;-147.04;48.98
39075;BME280;24826;52.070;20.970;2023-04-25T06:03:46;62152.34;;;-147.04;49.06
39075;BME280;24826;52.070;20.970;2023-04-25T06:06:31;62136.44;;;-147.04;49.03
39075;BME280;24826;52.070;20.970;2023-04-25T06:09:15;62162.28;;;-147.04;48.86
39075;BME280;24826;52.070;20.970;2023-04-25T06:12:00;62164.28;;;-147.04;48.91
39075;BME280;24826;52.070;20.970;2023-04-25T06:14:45;62180.19;;;-147.04;48.72
39075;BME280;24826;52.070;20.970;2023-04-25T06:17:29;62156.31;;;-147.04;48.85
39075;BME280;24826;52.070;20.970;2023-04-25T06:20:14;62160.31;;;-147.04;48.67
39075;BME280;24826;52.070;20.970;2023-04-25T06:22:58;62140.41;;;-147.04;48.72
39075;BME280;24826;52.070;20.970;2023-04-25T06:25:43;62136.44;;;-147.04;48.54
39075;BME280;24826;52.070;20.970;2023-04-25T06:28:27;62168.25;;;-147.04;48.46
39075;BME280;24826;52.070;20.970;2023-04-25T06:31:12;62158.31;;;-147.04;48.45
39075;BME280;24826;52.070;20.970;2023-04-25T06:33:56;62180.19;;;-147.04;48.45
39075;BME280;24826;52.070;20.970;2023-04-25T06:36:41;62148.38;;;-147.04;48.34
39075;BME280;24826;52.070;20.970;2023-04-25T06:39:25;62148.38;;;-147.04;48.32
39075;BME280;24826;52.070;20.970;2023-04-25T06:42:10;62148.38;;;-147.04;48.25
39075;BME280;24826;52.070;20.970;2023-04-25T06:44:54;62172.22;;;-147.04;48.26
39075;BME280;24826;52.070;20.970;2023-04-25T06:47:39;62152.34;;;-147.04;48.24
39075;BME280;24826;52.070;20.970;2023-04-25T06:50:24;62164.28;;;-147.04;48.14
39075;BME280;24826;52.070;20.970;2023-04-25T06:53:08;62114.56;;;-147.04;48.40
39075;BME280;24826;52.070;20.970;2023-04-25T06:55:53;62180.19;;;-147.04;48.02
39075;BME280;24826;52.070;20.970;2023-04-25T06:58:37;62215.97;;;-147.04;48.56
39075;BME280;24826;52.070;20.970;2023-04-25T07:01:22;62148.38;;;-147.04;48.35
39075;BME280;24826;52.070;20.970;2023-04-25T07:04:06;62168.25;;;-147.04;48.61
39075;BME280;24826;52.070;20.970;2023-04-25T07:06:50;62134.44;;;-147.04;48.71
39075;BME280;24826;52.070;20.970;2023-04-25T07:09:35;62156.31;;;-147.04;48.94
39075;BME280;24826;52.070;20.970;2023-04-25T07:12:19;62114.56;;;-147.04;48.64
39075;BME280;24826;52.070;20.970;2023-04-25T07:15:04;62116.53;;;-147.04;48.69
39075;BME280;24826;52.070;20.970;2023-04-25T07:17:50;62196.09;;;-147.04;48.81
39075;BME280;24826;52.070;20.970;2023-04-25T07:20:34;62150.34;;;-147.04;48.77
39075;BME280;24826;52.070;20.970;2023-04-25T07:23:18;62096.66;;;-147.04;47.79
39075;BME280;24826;52.070;20.970;2023-04-25T07:26:03;62136.44;;;-147.04;47.79
39075;BME280;24826;52.070;20.970;2023-04-25T07:28:47;62160.31;;;-147.04;48.35
39075;BME280;24826;52.070;20.970;2023-04-25T07:31:35;62162.28;;;-147.04;48.48
39075;BME280;24826;52.070;20.970;2023-04-25T07:34:19;62158.31;;;-147.04;48.67
39075;BME280;24826;52.070;20.970;2023-04-25T07:37:05;62136.44;;;-147.04;48.60
39075;BME280;24826;52.070;20.970;2023-04-25T07:39:49;62132.47;;;-147.04;48.56
39075;BME280;24826;52.070;20.970;2023-04-25T07:42:34;62114.56;;;-147.04;48.35
39075;BME280;24826;52.070;20.970;2023-04-25T07:45:18;62132.47;;;-147.04;48.24
39075;BME280;24826;52.070;20.970;2023-04-25T07:48:03;62146.38;;;-147.04;48.38
39075;BME280;24826;52.070;20.970;2023-04-25T07:50:47;62160.31;;;-147.04;48.72
39075;BME280;24826;52.070;20.970;2023-04-25T07:53:34;62156.31;;;-147.04;48.14
39075;BME280;24826;52.070;20.970;2023-04-25T07:56:20;62128.47;;;-147.04;48.31
39075;BME280;24826;52.070;20.970;2023-04-25T07:59:04;62108.59;;;-147.04;48.22
39075;BME280;24826;52.070;20.970;2023-04-25T08:01:48;62134.44;;;-147.04;48.38
39075;BME280;24826;52.070;20.970;2023-04-25T08:04:33;62156.31;;;-147.04;48.67
39075;BME280;24826;52.070;20.970;2023-04-25T08:07:17;62166.25;;;-147.04;49.01
39075;BME280;24826;52.070;20.970;2023-04-25T08:10:01;62122.50;;;-147.04;49.27
39075;BME280;24826;52.070;20.970;2023-04-25T08:12:46;62136.44;;;-147.04;49.32
39075;BME280;24826;52.070;20.970;2023-04-25T08:15:30;62231.91;;;-147.04;49.35
39075;BME280;24826;52.070;20.970;2023-04-25T08:18:14;62184.16;;;-147.04;48.67
39075;BME280;24826;52.070;20.970;2023-04-25T08:20:59;62136.44;;;-147.04;48.67
39075;BME280;24826;52.070;20.970;2023-04-25T08:23:43;62164.28;;;-147.04;48.57
39075;BME280;24826;52.070;20.970;2023-04-25T08:26:28;62154.34;;;-147.04;48.65
39075;BME280;24826;52.070;20.970;2023-04-25T08:29:13;62158.31;;;-147.04;48.50
39075;BME280;24826;52.070;20.970;2023-04-25T08:31:57;62204.06;;;-147.04;48.86
39075;BME280;24826;52.070;20.970;2023-04-25T08:34:41;62144.38;;;-147.04;48.87
39075;BME280;24826;52.070;20.970;2023-04-25T08:37:26;62146.38;;;-147.04;48.82
39075;BME280;24826;52.070;20.970;2023-04-25T08:40:14;62138.41;;;-147.04;48.88
39075;BME280;24826;52.070;20.970;2023-04-25T08:42:58;62176.22;;;-147.04;48.91
39075;BME280;24826;52.070;20.970;2023-04-25T08:45:45;62174.22;;;-147.04;49.17
39075;BME280;24826;52.070;20.970;2023-04-25T08:48:32;62176.22;;;-147.04;49.23
39075;BME280;24826;52.070;20.970;2023-04-25T08:51:23;62162.28;;;-147.04;49.40
39075;BME280;24826;52.070;20.970;2023-04-25T08:54:13;62116.53;;;-147.04;49.30
39075;BME280;24826;52.070;20.970;2023-04-25T08:57:01;62164.28;;;-147.04;49.20
39075;BME280;24826;52.070;20.970;2023-04-25T08:59:48;62176.22;;;-147.04;49.23
39075;BME280;24826;52.070;20.970;2023-04-25T09:02:33;62154.34;;;-147.04;49.14
39075;BME280;24826;52.070;20.970;2023-04-25T09:05:18;62136.44;;;-147.04;49.23
39075;BME280;24826;52.070;20.970;2023-04-25T09:08:02;62148.38;;;-147.04;49.09
39075;BME280;24826;52.070;20.970;2023-04-25T09:10:46;62168.25;;;-147.04;49.08
39075;BME280;24826;52.070;20.970;2023-04-25T09:13:31;62160.31;;;-147.04;48.84
39075;BME280;24826;52.070;20.970;2023-04-25T09:16:15;62140.41;;;-147.04;48.85
39075;BME280;24826;52.070;20.970;2023-04-25T09:19:03;62156.31;;;-147.04;48.77
39075;BME280;24826;52.070;20.970;2023-04-25T09:21:51;62146.38;;;-147.04;48.91
39075;BME280;24826;52.070;20.970;2023-04-25T09:24:39;62144.38;;;-147.04;48.84
39075;BME280;24826;52.070;20.970;2023-04-25T09:27:24;62162.28;;;-147.04;48.88
39075;BME280;24826;52.070;20.970;2023-04-25T09:30:11;62184.16;;;-147.04;48.92
39075;BME280;24826;52.070;20.970;2023-04-25T09:32:57;62202.06;;;-147.04;48.96
39075;BME280;24826;52.070;20.970;2023-04-25T09:35:43;62162.28;;;-147.04;48.97
39075;BME280;24826;52.070;20.970;2023-04-25T09:38:39;62176.22;;;-147.04;49.02
39075;BME280;24826;52.070;20.970;2023-04-25T09:41:25;62160.31;;;-147.04;49.17
39075;BME280;24826;52.070;20.970;2023-04-25T09:44:12;62156.31;;;-147.04;49.24
39075;BME280;24826;52.070;20.970;2023-04-25T09:46:57;62164.28;;;-147.04;49.12
39075;BME280;24826;52.070;20.970;2023-04-25T09:49:43;62196.09;;;-147.04;49.19
39075;BME280;24826;52.070;20.970;2023-04-25T09:52:28;62144.38;;;-147.04;49.09
39075;BME280;24826;52.070;20.970;2023-04-25T09:55:12;62204.06;;;-147.04;49.06
39075;BME280;24826;52.070;20.970;2023-04-25T09:58:03;62150.34;;;-147.04;49.12
39075;BME280;24826;52.070;20.970;2023-04-25T10:00:47;62162.28;;;-147.04;48.98
39075;BME280;24826;52.070;20.970;2023-04-25T10:03:33;62134.44;;;-147.04;48.91
39075;BME280;24826;52.070;20.970;2023-04-25T10:06:19;62200.06;;;-147.04;49.43
39075;BME280;24826;52.070;20.970;2023-04-25T10:09:06;62180.19;;;-147.04;48.98
39075;BME280;24826;52.070;20.970;2023-04-25T10:11:52;62190.13;;;-147.04;49.14
39075;BME280;24826;52.070;20.970;2023-04-25T10:14:38;62140.41;;;-147.04;49.15
39075;BME280;24826;52.070;20.970;2023-04-25T10:17:22;62132.47;;;-147.04;49.19
39075;BME280;24826;52.070;20.970;2023-04-25T10:20:07;62152.34;;;-147.04;49.17
39075;BME280;24826;52.070;20.970;2023-04-25T10:22:55;62100.63;;;-147.04;49.15
39075;BME280;24826;52.070;20.970;2023-04-25T10:25:43;62160.31;;;-147.04;49.17
39075;BME280;24826;52.070;20.970;2023-04-25T10:28:27;62168.25;;;-147.04;49.25
39075;BME280;24826;52.070;20.970;2023-04-25T10:31:15;62146.38;;;-147.04;49.27
39075;BME280;24826;52.070;20.970;2023-04-25T10:34:00;62138.41;;;-147.04;49.77
39075;BME280;24826;52.070;20.970;2023-04-25T10:36:52;62186.16;;;-147.04;49.39
39075;BME280;24826;52.070;20.970;2023-04-25T10:39:39;62160.31;;;-147.04;49.17
39075;BME280;24826;52.070;20.970;2023-04-25T10:42:24;62164.28;;;-147.04;50.04
39075;BME280;24826;52.070;20.970;2023-04-25T10:45:09;62168.25;;;-147.04;49.81
39075;BME280;24826;52.070;20.970;2023-04-25T10:47:54;62148.38;;;-147.04;49.95
39075;BME280;24826;52.070;20.970;2023-04-25T10:50:38;62128.47;;;-147.04;49.74
39075;BME280;24826;52.070;20.970;2023-04-25T10:53:24;62184.16;;;-147.04;49.45
39075;BME280;24826;52.070;20.970;2023-04-25T10:56:22;62184.16;;;-147.04;50.19
39075;BME280;24826;52.070;20.970;2023-04-25T10:59:10;62140.41;;;-147.04;49.59
39075;BME280;24826;52.070;20.970;2023-04-25T11:01:55;62164.28;;;-147.04;49.45
39075;BME280;24826;52.070;20.970;2023-04-25T11:04:40;62166.25;;;-147.04;49.28
39075;BME280;24826;52.070;20.970;2023-04-25T11:07:35;62160.31;;;-147.04;49.17
39075;BME280;24826;52.070;20.970;2023-04-25T11:10:25;62164.28;;;-147.04;49.12
39075;BME280;24826;52.070;20.970;2023-04-25T11:13:09;62144.38;;;-147.04;49.15
39075;BME280;24826;52.070;20.970;2023-04-25T11:15:54;62208.03;;;-147.04;49.36
39075;BME280;24826;52.070;20.970;2023-04-25T11:18:42;62176.22;;;-147.04;49.23
39075;BME280;24826;52.070;20.970;2023-04-25T11:21:27;62152.34;;;-147.04;49.09
39075;BME280;24826;52.070;20.970;2023-04-25T11:24:11;62184.16;;;-147.04;49.10
39075;BME280;24826;52.070;20.970;2023-04-25T11:26:58;62152.34;;;-147.04;49.33
39075;BME280;24826;52.070;20.970;2023-04-25T11:29:42;62180.19;;;-147.04;49.69
39075;BME280;24826;52.070;20.970;2023-04-25T11:32:27;62148.38;;;-147.04;49.25
39075;BME280;24826;52.070;20.970;2023-04-25T11:35:12;62134.44;;;-147.04;49.14
39075;BME280;24826;52.070;20.970;2023-04-25T11:37:57;62150.34;;;-147.04;49.00
39075;BME280;24826;52.070;20.970;2023-04-25T11:40:41;62152.34;;;-147.04;49.04
39075;BME280;24826;52.070;20.970;2023-04-25T11:43:26;62192.13;;;-147.04;49.15
39075;BME280;24826;52.070;20.970;2023-04-25T11:46:10;62176.22;;;-147.04;49.04
39075;BME280;24826;52.070;20.970;2023-04-25T11:48:55;62176.22;;;-147.04;49.00
39075;BME280;24826;52.070;20.970;2023-04-25T11:51:44;62140.41;;;-147.04;48.93
39075;BME280;24826;52.070;20.970;2023-04-25T11:54:29;62168.25;;;-147.04;48.85
39075;BME280;24826;52.070;20.970;2023-04-25T11:57:14;62156.31;;;-147.04;48.81
39075;BME280;24826;52.070;20.970;2023-04-25T12:00:07;62120.53;;;-147.04;48.88
39075;BME280;24826;52.070;20.970;2023-04-25T12:02:53;62148.38;;;-147.04;48.77
39075;BME280;24826;52.070;20.970;2023-04-25T12:05:38;62164.28;;;-147.04;48.67
39075;BME280;24826;52.070;20.970;2023-04-25T12:08:23;62132.47;;;-147.04;48.77
39075;BME280;24826;52.070;20.970;2023-04-25T12:11:20;62164.28;;;-147.04;48.85
39075;BME280;24826;52.070;20.970;2023-04-25T12:14:05;62156.31;;;-147.04;48.80
39075;BME280;24826;52.070;20.970;2023-04-25T12:16:50;62182.19;;;-147.04;48.83
39075;BME280;24826;52.070;20.970;2023-04-25T12:19:36;62184.16;;;-147.04;48.82
39075;BME280;24826;52.070;20.970;2023-04-25T12:22:23;62172.22;;;-147.04;48.92
39075;BME280;24826;52.070;20.970;2023-04-25T12:25:08;62168.25;;;-147.04;48.77
39075;BME280;24826;52.070;20.970;2023-04-25T12:27:53;62126.50;;;-147.04;48.82
39075;BME280;24826;52.070;20.970;2023-04-25T12:33:37;62108.59;;;-147.04;48.75
39075;BME280;24826;52.070;20.970;2023-04-25T12:36:23;62136.44;;;-147.04;48.81
39075;BME280;24826;52.070;20.970;2023-04-25T12:39:07;62289.56;;;-147.04;48.70
39075;BME280;24826;52.070;20.970;2023-04-25T12:41:52;62156.31;;;-147.04;48.79
39075;BME280;24826;52.070;20.970;2023-04-25T12:44:38;62132.47;;;-147.04;48.72
39075;BME280;24826;52.070;20.970;2023-04-25T12:47:22;62156.31;;;-147.04;48.64
39075;BME280;24826;52.070;20.970;2023-04-25T12:50:07;62124.50;;;-147.04;48.69
39075;BME280;24826;52.070;20.970;2023-04-25T12:52:52;62166.25;;;-147.04;48.54
39075;BME280;24826;52.070;20.970;2023-04-25T12:55:37;62154.34;;;-147.04;48.51
39075;BME280;24826;52.070;20.970;2023-04-25T12:58:21;62140.41;;;-147.04;48.54
39075;BME280;24826;52.070;20.970;2023-04-25T13:01:05;62174.22;;;-147.04;48.48
39075;BME280;24826;52.070;20.970;2023-04-25T13:03:51;62158.31;;;-147.04;48.63
39075;BME280;24826;52.070;20.970;2023-04-25T13:06:35;62148.38;;;-147.04;48.46
39075;BME280;24826;52.070;20.970;2023-04-25T13:09:19;62124.50;;;-147.04;48.54
39075;BME280;24826;52.070;20.970;2023-04-25T13:12:05;62162.28;;;-147.04;48.42
39075;BME280;24826;52.070;20.970;2023-04-25T13:14:49;62126.50;;;-147.04;48.73
39075;BME280;24826;52.070;20.970;2023-04-25T13:17:34;62144.38;;;-147.04;48.43
39075;BME280;24826;52.070;20.970;2023-04-25T13:20:18;62124.50;;;-147.04;48.52
39075;BME280;24826;52.070;20.970;2023-04-25T13:23:06;62196.09;;;-147.04;48.49
39075;BME280;24826;52.070;20.970;2023-04-25T13:25:50;62154.34;;;-147.04;48.69
39075;BME280;24826;52.070;20.970;2023-04-25T13:28:35;62251.78;;;-147.04;48.54
39075;BME280;24826;52.070;20.970;2023-04-25T13:31:19;62140.41;;;-147.04;48.56
39075;BME280;24826;52.070;20.970;2023-04-25T13:34:04;62156.31;;;-147.04;48.50
39075;BME280;24826;52.070;20.970;2023-04-25T13:36:48;62176.22;;;-147.04;48.46
39075;BME280;24826;52.070;20.970;2023-04-25T13:39:33;62132.47;;;-147.04;48.40
39075;BME280;24826;52.070;20.970;2023-04-25T13:42:17;62148.38;;;-147.04;48.33
39075;BME280;24826;52.070;20.970;2023-04-25T13:45:02;62176.22;;;-147.04;48.34
39075;BME280;24826;52.070;20.970;2023-04-25T13:47:47;62160.31;;;-147.04;48.27
39075;BME280;24826;52.070;20.970;2023-04-25T13:50:31;62168.25;;;-147.04;48.25
39075;BME280;24826;52.070;20.970;2023-04-25T13:53:15;62140.41;;;-147.04;48.27
39075;BME280;24826;52.070;20.970;2023-04-25T13:56:00;62130.47;;;-147.04;48.29
39075;BME280;24826;52.070;20.970;2023-04-25T13:58:44;62156.31;;;-147.04;48.25
39075;BME280;24826;52.070;20.970;2023-04-25T14:01:29;62148.38;;;-147.04;48.24
39075;BME280;24826;52.070;20.970;2023-04-25T14:04:15;62188.13;;;-147.04;48.24